createdAt,value
2023-03-07T00:00:42.829Z,4.24
2023-03-07T00:01:42.809Z,4.30
2023-03-07T00:02:42.888Z,4.31
2023-03-07T00:03:43.173Z,4.35
2023-03-07T00:04:42.758Z,4.28
2023-03-07T00:05:42.748Z,4.28
2023-03-07T00:06:42.739Z,4.42
2023-03-07T00:07:42.731Z,4.28
2023-03-07T00:08:42.718Z,4.34
2023-03-07T00:09:42.717Z,4.38
2023-03-07T00:10:42.738Z,4.48
2023-03-07T00:11:42.684Z,4.45
2023-03-07T00:12:42.681Z,4.41
2023-03-07T00:13:42.671Z,4.44
2023-03-07T00:14:42.667Z,4.40
2023-03-07T00:15:42.639Z,4.50
2023-03-07T00:16:42.649Z,4.45
2023-03-07T00:17:42.632Z,4.49
2023-03-07T00:18:42.612Z,4.52
2023-03-07T00:19:42.618Z,4.50
2023-03-07T00:20:42.590Z,4.50
2023-03-07T00:21:42.567Z,4.50
2023-03-07T00:22:42.592Z,4.56
2023-03-07T00:23:42.551Z,4.56
2023-03-07T00:24:42.545Z,4.56
2023-03-07T00:25:42.529Z,4.58
2023-03-07T00:26:42.512Z,4.68
2023-03-07T00:27:42.509Z,4.67
2023-03-07T00:28:42.497Z,4.70
2023-03-07T00:29:42.482Z,4.67
2023-03-07T00:30:42.468Z,4.70
2023-03-07T00:31:42.519Z,4.73
2023-03-07T00:32:42.570Z,4.70
2023-03-07T00:33:42.447Z,4.66
2023-03-07T00:34:42.423Z,4.67
2023-03-07T00:35:42.470Z,4.66
2023-03-07T00:36:42.408Z,4.68
2023-03-07T00:37:42.402Z,4.67
2023-03-07T00:38:42.444Z,4.67
2023-03-07T00:39:42.369Z,4.66
2023-03-07T00:40:42.362Z,4.63
2023-03-07T00:41:42.352Z,4.60
2023-03-07T00:42:42.344Z,4.63
2023-03-07T00:43:42.331Z,4.67
2023-03-07T00:44:42.312Z,4.68
2023-03-07T00:45:42.333Z,4.70
2023-03-07T00:46:42.299Z,4.63
2023-03-07T00:47:42.299Z,4.66
2023-03-07T00:48:42.272Z,4.66
2023-03-07T00:49:42.265Z,4.66
2023-03-07T00:50:42.248Z,4.67
2023-03-07T00:51:42.275Z,4.71
2023-03-07T00:52:42.237Z,4.73
2023-03-07T00:53:42.232Z,4.66
2023-03-07T00:54:42.205Z,4.67
2023-03-07T00:55:42.195Z,4.63
2023-03-07T00:56:42.185Z,4.71
2023-03-07T00:57:42.178Z,4.70
2023-03-07T00:58:42.169Z,4.66
2023-03-07T00:59:42.163Z,4.75
2023-03-07T01:00:42.185Z,4.58
2023-03-07T01:01:42.153Z,4.67
2023-03-07T01:02:42.116Z,4.73
2023-03-07T01:03:42.113Z,4.56
2023-03-07T01:04:42.115Z,4.68
2023-03-07T01:05:42.088Z,4.67
2023-03-07T01:06:42.070Z,4.58
2023-03-07T01:07:42.097Z,4.71
2023-03-07T01:08:42.050Z,4.77
2023-03-07T01:09:42.039Z,4.70
2023-03-07T01:10:42.046Z,4.71
2023-03-07T01:11:42.022Z,4.75
2023-03-07T01:12:42.024Z,4.68
2023-03-07T01:13:42.037Z,4.63
2023-03-07T01:14:41.989Z,4.71
2023-03-07T01:15:41.975Z,4.73
2023-03-07T01:16:42.002Z,4.78
2023-03-07T01:17:41.958Z,4.73
2023-03-07T01:18:41.958Z,4.73
2023-03-07T01:19:41.929Z,4.71
2023-03-07T01:20:41.922Z,4.75
2023-03-07T01:21:41.918Z,4.67
2023-03-07T01:22:41.908Z,4.82
2023-03-07T01:23:42.052Z,4.73
2023-03-07T01:24:41.881Z,4.73
2023-03-07T01:25:41.862Z,4.73
2023-03-07T01:26:41.854Z,4.71
2023-03-07T01:27:41.840Z,4.75
2023-03-07T01:28:41.839Z,4.82
2023-03-07T01:29:41.959Z,4.82
2023-03-07T01:30:41.811Z,4.77
2023-03-07T01:31:41.811Z,4.90
2023-03-07T01:32:41.841Z,4.87
2023-03-07T01:33:41.775Z,4.84
2023-03-07T01:34:41.779Z,4.86
2023-03-07T01:35:41.821Z,4.84
2023-03-07T01:36:41.837Z,4.87
2023-03-07T01:37:41.739Z,4.90
2023-03-07T01:38:41.726Z,4.90
2023-03-07T01:39:41.764Z,4.82
2023-03-07T01:40:41.717Z,4.82
2023-03-07T01:41:41.719Z,4.84
2023-03-07T01:42:41.682Z,4.70
2023-03-07T01:43:41.666Z,4.71
2023-03-07T01:44:41.670Z,4.75
2023-03-07T01:45:41.726Z,4.73
2023-03-07T01:46:41.654Z,4.75
2023-03-07T01:47:41.678Z,4.70
2023-03-07T01:48:41.613Z,4.68
2023-03-07T01:49:41.623Z,4.68
2023-03-07T01:50:41.590Z,4.73
2023-03-07T01:51:41.585Z,4.74
2023-03-07T01:52:41.588Z,4.75
2023-03-07T01:53:41.565Z,4.74
2023-03-07T01:54:41.545Z,4.68
2023-03-07T01:55:41.547Z,4.73
2023-03-07T01:56:41.535Z,4.75
2023-03-07T01:57:41.514Z,4.73
2023-03-07T01:58:41.506Z,4.68
2023-03-07T01:59:41.503Z,4.71
2023-03-07T02:00:41.485Z,4.73
2023-03-07T02:01:41.566Z,4.75
2023-03-07T02:02:41.462Z,4.67
2023-03-07T02:03:41.458Z,4.82
2023-03-07T02:04:41.475Z,4.80
2023-03-07T02:05:41.416Z,4.74
2023-03-07T02:06:41.416Z,4.74
2023-03-07T02:07:41.405Z,4.82
2023-03-07T02:08:41.390Z,4.90
2023-03-07T02:09:41.387Z,4.87
2023-03-07T02:10:41.379Z,4.86
2023-03-07T02:11:41.380Z,4.71
2023-03-07T02:12:41.349Z,4.71
2023-03-07T02:13:41.328Z,4.63
2023-03-07T02:14:41.339Z,4.56
2023-03-07T02:15:41.342Z,4.58
2023-03-07T02:16:41.297Z,4.49
2023-03-07T02:17:41.286Z,4.42
2023-03-07T02:18:41.282Z,4.42
2023-03-07T02:19:41.271Z,4.32
2023-03-07T02:20:41.267Z,4.40
2023-03-07T02:21:41.253Z,4.44
2023-03-07T02:22:41.235Z,4.50
2023-03-07T02:23:41.218Z,4.45
2023-03-07T02:24:41.220Z,4.45
2023-03-07T02:25:41.214Z,4.50
2023-03-07T02:26:41.213Z,4.40
2023-03-07T02:27:41.228Z,4.50
2023-03-07T02:28:41.167Z,4.49
2023-03-07T02:29:41.154Z,4.53
2023-03-07T02:30:41.202Z,4.68
2023-03-07T02:31:41.135Z,4.68
2023-03-07T02:32:41.173Z,4.68
2023-03-07T02:33:41.122Z,4.67
2023-03-07T02:34:41.107Z,4.68
2023-03-07T02:35:41.105Z,4.71
2023-03-07T02:36:41.093Z,4.70
2023-03-07T02:37:41.065Z,4.75
2023-03-07T02:38:41.101Z,4.82
2023-03-07T02:39:41.056Z,4.70
2023-03-07T02:40:41.043Z,4.70
2023-03-07T02:41:41.036Z,4.73
2023-03-07T02:42:41.025Z,4.84
2023-03-07T02:43:41.140Z,4.71
2023-03-07T02:44:41.012Z,4.71
2023-03-07T02:45:40.996Z,4.80
2023-03-07T02:46:40.970Z,4.73
2023-03-07T02:47:40.956Z,4.84
2023-03-07T02:48:40.943Z,4.77
2023-03-07T02:49:40.938Z,4.71
2023-03-07T02:50:40.944Z,4.70
2023-03-07T02:51:40.945Z,4.75
2023-03-07T02:52:40.900Z,4.74
2023-03-07T02:53:40.889Z,4.74
2023-03-07T02:54:40.885Z,4.82
2023-03-07T02:55:40.877Z,4.70
2023-03-07T02:56:40.881Z,4.73
2023-03-07T02:57:40.846Z,4.80
2023-03-07T02:58:40.834Z,4.74
2023-03-07T02:59:40.846Z,4.73
2023-03-07T03:00:40.833Z,4.75
2023-03-07T03:01:40.918Z,4.71
2023-03-07T03:02:40.828Z,4.75
2023-03-07T03:03:40.784Z,4.67
2023-03-07T03:04:40.806Z,4.71
2023-03-07T03:05:40.758Z,4.84
2023-03-07T03:06:40.765Z,4.74
2023-03-07T03:07:40.749Z,4.73
2023-03-07T03:08:40.748Z,4.84
2023-03-07T03:09:40.716Z,4.84
2023-03-07T03:10:40.709Z,4.73
2023-03-07T03:11:40.693Z,4.74
2023-03-07T03:12:40.696Z,4.73
2023-03-07T03:13:40.674Z,4.74
2023-03-07T03:14:40.679Z,4.80
2023-03-07T03:15:40.673Z,4.70
2023-03-07T03:16:40.643Z,4.73
2023-03-07T03:17:40.638Z,4.77
2023-03-07T03:18:40.632Z,4.82
2023-03-07T03:19:40.608Z,4.74
2023-03-07T03:20:40.609Z,4.75
2023-03-07T03:21:47.680Z,4.73
2023-03-07T03:22:40.588Z,4.74
2023-03-07T03:23:40.632Z,4.68
2023-03-07T03:24:40.571Z,4.75
2023-03-07T03:25:40.592Z,4.84
2023-03-07T03:26:40.538Z,4.71
2023-03-07T03:27:40.536Z,4.87
2023-03-07T03:28:40.528Z,4.75
2023-03-07T03:29:40.529Z,4.84
2023-03-07T03:30:40.506Z,4.80
2023-03-07T03:31:40.521Z,4.84
2023-03-07T03:32:40.547Z,4.77
2023-03-07T03:33:40.475Z,4.86
2023-03-07T03:34:40.451Z,4.78
2023-03-07T03:35:40.462Z,4.80
2023-03-07T03:36:40.438Z,4.90
2023-03-07T03:37:40.414Z,4.90
2023-03-07T03:38:40.419Z,4.86
2023-03-07T03:39:40.389Z,4.74
2023-03-07T03:40:40.382Z,4.71
2023-03-07T03:41:40.373Z,4.73
2023-03-07T03:42:40.360Z,4.75
2023-03-07T03:43:40.352Z,4.87
2023-03-07T03:44:40.350Z,4.74
2023-03-07T03:45:40.331Z,4.74
2023-03-07T03:46:40.345Z,4.74
2023-03-07T03:47:40.322Z,4.77
2023-03-07T03:48:40.295Z,4.86
2023-03-07T03:49:40.285Z,4.86
2023-03-07T03:50:40.274Z,4.78
2023-03-07T03:51:40.265Z,4.77
2023-03-07T03:52:40.261Z,4.74
2023-03-07T03:53:40.276Z,4.78
2023-03-07T03:54:40.234Z,4.73
2023-03-07T03:55:40.214Z,4.75
2023-03-07T03:56:40.206Z,4.75
2023-03-07T03:57:40.203Z,4.74
2023-03-07T03:58:40.184Z,4.68
2023-03-07T03:59:40.182Z,4.68
2023-03-07T04:00:40.166Z,4.68
2023-03-07T04:01:40.223Z,4.77
2023-03-07T04:02:40.281Z,4.73
2023-03-07T04:03:40.146Z,4.70
2023-03-07T04:04:40.129Z,4.71
2023-03-07T04:05:40.109Z,4.73
2023-03-07T04:06:40.105Z,4.68
2023-03-07T04:07:40.100Z,4.70
2023-03-07T04:08:40.076Z,4.70
2023-03-07T04:09:40.084Z,4.58
2023-03-07T04:10:40.058Z,4.66
2023-03-07T04:11:40.052Z,4.68
2023-03-07T04:12:40.054Z,4.62
2023-03-07T04:13:40.036Z,4.67
2023-03-07T04:14:40.628Z,4.73
2023-03-07T04:15:39.989Z,4.71
2023-03-07T04:16:40.059Z,4.60
2023-03-07T04:17:39.986Z,4.67
2023-03-07T04:18:40.036Z,4.66
2023-03-07T04:19:39.967Z,4.63
2023-03-07T04:20:39.944Z,4.59
2023-03-07T04:21:39.929Z,4.59
2023-03-07T04:22:39.912Z,4.59
2023-03-07T04:23:39.906Z,4.53
2023-03-07T04:24:39.901Z,4.59
2023-03-07T04:25:39.914Z,4.55
2023-03-07T04:26:39.892Z,4.55
2023-03-07T04:27:39.852Z,4.56
2023-03-07T04:28:39.860Z,4.50
2023-03-07T04:29:39.842Z,4.48
2023-03-07T04:30:39.823Z,4.55
2023-03-07T04:31:39.830Z,4.49
2023-03-07T04:32:39.860Z,4.48
2023-03-07T04:33:39.804Z,4.48
2023-03-07T04:34:39.803Z,4.52
2023-03-07T04:35:39.827Z,4.45
2023-03-07T04:36:39.757Z,4.48
2023-03-07T04:37:39.744Z,4.45
2023-03-07T04:38:39.736Z,4.52
2023-03-07T04:39:39.732Z,4.49
2023-03-07T04:40:39.749Z,4.44
2023-03-07T04:41:39.699Z,4.55
2023-03-07T04:42:39.689Z,4.50
2023-03-07T04:43:39.689Z,4.58
2023-03-07T04:44:39.669Z,4.52
2023-03-07T04:45:39.725Z,4.48
2023-03-07T04:46:39.662Z,4.48
2023-03-07T04:47:39.636Z,4.49
2023-03-07T04:48:39.628Z,4.53
2023-03-07T04:49:39.611Z,4.41
2023-03-07T04:50:39.603Z,4.44
2023-03-07T04:51:39.634Z,4.38
2023-03-07T04:52:39.582Z,4.49
2023-03-07T04:53:39.591Z,4.45
2023-03-07T04:54:39.560Z,4.50
2023-03-07T04:55:39.565Z,4.50
2023-03-07T04:56:39.558Z,4.49
2023-03-07T04:57:39.533Z,4.44
2023-03-07T04:58:39.516Z,4.53
2023-03-07T04:59:39.525Z,4.48
2023-03-07T05:00:39.505Z,4.58
2023-03-07T05:01:39.587Z,4.50
2023-03-07T05:02:39.489Z,4.62
2023-03-07T05:03:39.460Z,4.48
2023-03-07T05:04:39.527Z,4.53
2023-03-07T05:05:39.468Z,4.53
2023-03-07T05:06:39.431Z,4.45
2023-03-07T05:07:39.438Z,4.53
2023-03-07T05:08:39.421Z,4.45
2023-03-07T05:09:39.394Z,4.45
2023-03-07T05:10:39.404Z,4.44
2023-03-07T05:11:39.374Z,4.52
2023-03-07T05:12:39.367Z,4.49
2023-03-07T05:13:39.351Z,4.53
2023-03-07T05:14:39.369Z,4.52
2023-03-07T05:15:39.373Z,4.50
2023-03-07T05:16:39.313Z,4.48
2023-03-07T05:17:39.317Z,4.45
2023-03-07T05:18:39.297Z,4.53
2023-03-07T05:19:39.285Z,4.52
2023-03-07T05:20:39.276Z,4.55
2023-03-07T05:21:39.267Z,4.59
2023-03-07T05:22:39.253Z,4.58
2023-03-07T05:23:39.269Z,4.53
2023-03-07T05:24:39.244Z,4.68
2023-03-07T05:25:39.223Z,4.66
2023-03-07T05:26:39.205Z,4.63
2023-03-07T05:27:39.199Z,4.63
2023-03-07T05:28:39.192Z,4.66
2023-03-07T05:29:39.174Z,4.71
2023-03-07T05:30:39.167Z,4.67
2023-03-07T05:31:39.157Z,4.67
2023-03-07T05:32:39.201Z,4.66
2023-03-07T05:33:39.131Z,4.68
2023-03-07T05:34:39.137Z,4.58
2023-03-07T05:35:39.154Z,4.56
2023-03-07T05:36:39.112Z,4.45
2023-03-07T05:37:39.092Z,4.38
2023-03-07T05:38:39.076Z,4.34
2023-03-07T05:39:39.102Z,4.14
2023-03-07T05:40:39.056Z,3.98
2023-03-07T05:41:39.053Z,3.84
2023-03-07T05:42:39.047Z,3.83
2023-03-07T05:43:39.031Z,3.76
2023-03-07T05:44:39.013Z,3.76
2023-03-07T05:45:39.011Z,3.78
2023-03-07T05:46:39.040Z,3.74
2023-03-07T05:47:38.974Z,3.73
2023-03-07T05:48:38.964Z,3.63
2023-03-07T05:49:38.954Z,3.55
2023-03-07T05:50:38.948Z,3.56
2023-03-07T05:51:38.936Z,3.62
2023-03-07T05:52:38.916Z,3.55
2023-03-07T05:53:38.913Z,3.47
2023-03-07T05:54:38.928Z,3.48
2023-03-07T05:55:38.912Z,3.47
2023-03-07T05:56:38.890Z,3.40
2023-03-07T05:57:38.887Z,3.41
2023-03-07T05:58:38.855Z,3.36
2023-03-07T05:59:38.845Z,3.48
2023-03-07T06:00:38.854Z,3.41
2023-03-07T06:01:38.824Z,3.25
2023-03-07T06:02:38.881Z,3.31
2023-03-07T06:03:38.847Z,3.21
2023-03-07T06:04:38.802Z,3.19
2023-03-07T06:05:38.787Z,3.14
2023-03-07T06:06:38.790Z,3.05
2023-03-07T06:07:38.788Z,3.05
2023-03-07T06:08:38.771Z,3.08
2023-03-07T06:09:38.738Z,2.95
2023-03-07T06:10:38.730Z,2.97
2023-03-07T06:11:38.841Z,3.04
2023-03-07T06:12:38.719Z,3.03
2023-03-07T06:13:38.690Z,3.04
2023-03-07T06:14:38.682Z,3.11
2023-03-07T06:15:38.667Z,3.00
2023-03-07T06:16:38.652Z,3.04
2023-03-07T06:17:40.591Z,3.05
2023-03-07T06:18:38.642Z,3.00
2023-03-07T06:19:38.629Z,2.95
2023-03-07T06:20:38.617Z,3.03
2023-03-07T06:21:38.599Z,2.89
2023-03-07T06:22:38.596Z,2.97
2023-03-07T06:23:38.589Z,2.87
2023-03-07T06:24:38.588Z,2.89
2023-03-07T06:25:38.559Z,2.92
2023-03-07T06:26:38.547Z,2.93
2023-03-07T06:27:38.559Z,2.85
2023-03-07T06:28:38.528Z,2.85
2023-03-07T06:29:38.529Z,2.77
2023-03-07T06:30:38.500Z,2.74
2023-03-07T06:31:38.539Z,2.83
2023-03-07T06:32:38.520Z,2.86
2023-03-07T06:33:38.496Z,2.82
2023-03-07T06:34:38.468Z,2.89
2023-03-07T06:35:38.464Z,2.79
2023-03-07T06:36:38.443Z,2.80
2023-03-07T06:37:38.426Z,2.82
2023-03-07T06:38:38.445Z,2.80
2023-03-07T06:39:38.416Z,2.80
2023-03-07T06:40:38.392Z,2.83
2023-03-07T06:41:38.385Z,2.90
2023-03-07T06:42:38.380Z,2.80
2023-03-07T06:43:38.385Z,2.82
2023-03-07T06:44:38.360Z,2.85
2023-03-07T06:45:38.407Z,2.92
2023-03-07T06:46:38.322Z,2.86
2023-03-07T06:47:38.331Z,2.85
2023-03-07T06:48:38.320Z,2.97
2023-03-07T06:49:38.322Z,2.98
2023-03-07T06:50:38.279Z,2.97
2023-03-07T06:51:38.318Z,2.98
2023-03-07T06:52:38.254Z,3.07
2023-03-07T06:53:38.244Z,3.03
2023-03-07T06:54:38.235Z,3.05
2023-03-07T06:55:38.250Z,2.95
2023-03-07T06:56:38.248Z,3.08
2023-03-07T06:57:38.215Z,3.00
2023-03-07T06:58:38.212Z,3.10
2023-03-07T06:59:38.348Z,3.04
2023-03-07T07:00:38.171Z,3.10
2023-03-07T07:01:38.177Z,2.86
2023-03-07T07:02:38.294Z,3.10
2023-03-07T07:03:38.146Z,3.08
2023-03-07T07:04:38.127Z,3.08
2023-03-07T07:05:38.118Z,3.04
2023-03-07T07:06:38.106Z,3.01
2023-03-07T07:07:38.104Z,3.19
2023-03-07T07:08:38.076Z,3.08
2023-03-07T07:09:38.069Z,3.08
2023-03-07T07:10:38.053Z,3.22
2023-03-07T07:11:38.056Z,3.25
2023-03-07T07:12:38.037Z,3.26
2023-03-07T07:13:38.049Z,3.29
2023-03-07T07:14:38.014Z,3.31
2023-03-07T07:15:38.021Z,3.40
2023-03-07T07:16:38.020Z,3.26
2023-03-07T07:17:37.986Z,3.29
2023-03-07T07:18:37.966Z,3.28
2023-03-07T07:19:37.964Z,3.31
2023-03-07T07:20:37.983Z,3.25
2023-03-07T07:21:37.943Z,3.34
2023-03-07T07:22:37.951Z,3.34
2023-03-07T07:23:37.913Z,3.42
2023-03-07T07:24:37.899Z,3.29
2023-03-07T07:25:37.901Z,3.25
2023-03-07T07:26:37.877Z,3.29
2023-03-07T07:27:37.880Z,3.42
2023-03-07T07:28:37.866Z,3.40
2023-03-07T07:29:37.863Z,3.41
2023-03-07T07:30:37.831Z,3.32
2023-03-07T07:31:38.017Z,3.26
2023-03-07T07:32:38.038Z,3.31
2023-03-07T07:33:37.822Z,3.28
2023-03-07T07:34:37.801Z,3.40
2023-03-07T07:35:37.800Z,3.32
2023-03-07T07:36:37.771Z,3.41
2023-03-07T07:37:37.760Z,3.42
2023-03-07T07:38:37.756Z,3.34
2023-03-07T07:39:37.746Z,3.37
2023-03-07T07:40:37.731Z,3.28
2023-03-07T07:41:37.718Z,3.26
2023-03-07T07:42:37.714Z,3.32
2023-03-07T07:43:37.707Z,3.29
2023-03-07T07:44:37.687Z,3.26
2023-03-07T07:45:37.716Z,3.36
2023-03-07T07:46:37.667Z,3.31
2023-03-07T07:47:37.689Z,3.36
2023-03-07T07:48:37.655Z,3.40
2023-03-07T07:49:37.640Z,3.44
2023-03-07T07:50:37.619Z,3.36
2023-03-07T07:51:37.609Z,3.31
2023-03-07T07:52:37.619Z,3.26
2023-03-07T07:53:37.597Z,3.26
2023-03-07T07:54:37.571Z,3.21
2023-03-07T07:55:37.568Z,3.29
2023-03-07T07:56:37.568Z,3.25
2023-03-07T07:57:37.558Z,3.19
2023-03-07T07:58:37.524Z,3.13
2023-03-07T07:59:37.541Z,3.22
2023-03-07T08:00:39.346Z,3.11
2023-03-07T08:01:37.500Z,3.11
2023-03-07T08:02:37.491Z,3.14
2023-03-07T08:03:37.552Z,3.04
2023-03-07T08:04:37.466Z,3.08
2023-03-07T08:05:37.453Z,3.00
2023-03-07T08:06:37.440Z,3.07
2023-03-07T08:07:37.431Z,3.07
2023-03-07T08:08:37.429Z,3.07
2023-03-07T08:09:37.410Z,3.11
2023-03-07T08:10:37.433Z,3.11
2023-03-07T08:11:37.399Z,3.10
2023-03-07T08:12:37.373Z,3.01
2023-03-07T08:13:37.376Z,2.97
2023-03-07T08:14:37.390Z,3.01
2023-03-07T08:15:37.438Z,3.05
2023-03-07T08:16:37.333Z,3.18
2023-03-07T08:17:37.334Z,3.03
2023-03-07T08:18:37.327Z,3.14
2023-03-07T08:19:37.339Z,3.08
2023-03-07T08:20:37.295Z,3.11
2023-03-07T08:21:37.330Z,3.03
2023-03-07T08:22:37.278Z,3.01
2023-03-07T08:23:37.269Z,2.93
2023-03-07T08:24:40.834Z,2.89
2023-03-07T08:25:37.259Z,2.92
2023-03-07T08:26:37.224Z,2.87
2023-03-07T08:27:37.240Z,2.80
2023-03-07T08:28:37.199Z,2.82
2023-03-07T08:29:37.220Z,2.90
2023-03-07T08:30:37.188Z,2.90
2023-03-07T08:31:37.196Z,2.89
2023-03-07T08:32:37.200Z,2.85
2023-03-07T08:33:37.150Z,2.92
2023-03-07T08:34:37.134Z,2.86
2023-03-07T08:35:37.275Z,2.93
2023-03-07T08:36:37.113Z,2.92
2023-03-07T08:37:37.111Z,2.95
2023-03-07T08:38:37.093Z,2.95
2023-03-07T08:39:37.089Z,2.97
2023-03-07T08:40:37.075Z,2.92
2023-03-07T08:41:37.059Z,2.98
2023-03-07T08:42:37.129Z,2.92
2023-03-07T08:43:37.058Z,2.92
2023-03-07T08:44:37.066Z,2.93
2023-03-07T08:45:37.012Z,3.01
2023-03-07T08:46:37.132Z,2.92
2023-03-07T08:47:37.016Z,2.89
2023-03-07T08:48:36.973Z,2.95
2023-03-07T08:49:36.982Z,2.98
2023-03-07T08:50:36.972Z,2.89
2023-03-07T08:51:36.980Z,2.98
2023-03-07T08:52:36.925Z,2.90
2023-03-07T08:53:36.955Z,2.95
2023-03-07T08:54:36.905Z,2.93
2023-03-07T08:55:36.911Z,2.97
2023-03-07T08:56:36.904Z,3.07
2023-03-07T08:57:36.874Z,2.98
2023-03-07T08:58:36.864Z,2.98
2023-03-07T08:59:36.859Z,2.97
2023-03-07T09:00:36.841Z,3.08
2023-03-07T09:01:36.906Z,3.07
2023-03-07T09:02:36.839Z,3.07
2023-03-07T09:03:36.809Z,3.04
2023-03-07T09:04:36.862Z,3.01
2023-03-07T09:05:36.801Z,3.05
2023-03-07T09:06:36.778Z,2.97
2023-03-07T09:07:36.784Z,3.04
2023-03-07T09:08:36.768Z,3.07
2023-03-07T09:09:36.763Z,3.07
2023-03-07T09:10:36.723Z,3.07
2023-03-07T09:11:36.755Z,3.08
2023-03-07T09:12:36.707Z,3.03
2023-03-07T09:13:49.705Z,3.03
2023-03-07T09:14:37.715Z,3.05
2023-03-07T09:15:36.705Z,3.05
2023-03-07T09:16:36.693Z,3.08
2023-03-07T09:17:36.678Z,3.07
2023-03-07T09:18:36.642Z,3.03
2023-03-07T09:19:36.640Z,3.03
2023-03-07T09:20:36.641Z,3.01
2023-03-07T09:21:36.609Z,3.13
2023-03-07T09:23:56.084Z,3.01
2023-03-07T09:24:56.031Z,3.04
2023-03-07T09:25:56.029Z,3.07
2023-03-07T09:26:56.042Z,3.00
2023-03-07T09:27:55.996Z,3.08
2023-03-07T09:28:55.991Z,3.05
2023-03-07T09:30:04.401Z,3.03
2023-03-07T09:30:55.963Z,3.10
2023-03-07T09:31:55.954Z,3.10
2023-03-07T09:32:55.952Z,3.05
2023-03-07T09:33:55.933Z,2.95
2023-03-07T09:34:55.927Z,3.01
2023-03-07T09:35:55.935Z,3.03
2023-03-07T09:36:55.923Z,3.05
2023-03-07T09:37:55.899Z,3.08
2023-03-07T09:38:58.057Z,3.22
2023-03-07T09:39:55.888Z,3.19
2023-03-07T09:40:55.858Z,3.23
2023-03-07T09:41:55.851Z,3.22
2023-03-07T09:42:55.849Z,3.21
2023-03-07T09:43:55.842Z,3.25
2023-03-07T09:44:55.818Z,3.25
2023-03-07T09:45:55.900Z,3.26
2023-03-07T09:46:55.795Z,3.18
2023-03-07T09:47:55.779Z,3.21
2023-03-07T09:48:55.787Z,3.22
2023-03-07T09:49:55.764Z,3.13
2023-03-07T09:50:55.771Z,3.25
2023-03-07T09:51:55.781Z,3.32
2023-03-07T09:52:55.728Z,3.42
2023-03-07T09:53:55.737Z,3.42
2023-03-07T09:54:55.754Z,3.42
2023-03-07T09:55:55.720Z,3.44
2023-03-07T09:56:55.684Z,3.45
2023-03-07T09:57:55.681Z,3.44
2023-03-07T09:58:55.689Z,3.42
2023-03-07T09:59:55.661Z,3.47
2023-03-07T10:00:55.664Z,3.50
2023-03-07T10:01:55.639Z,3.51
2023-03-07T10:02:55.640Z,3.42
2023-03-07T10:03:55.727Z,3.36
2023-03-07T10:04:55.609Z,3.37
2023-03-07T10:05:55.584Z,3.50
2023-03-07T10:06:57.393Z,3.50
2023-03-07T10:07:55.575Z,3.63
2023-03-07T10:08:55.563Z,3.62
2023-03-07T10:09:55.545Z,3.59
2023-03-07T10:10:55.545Z,3.60
2023-03-07T10:11:55.597Z,3.66
2023-03-07T10:12:55.526Z,3.69
2023-03-07T10:13:55.499Z,3.63
2023-03-07T10:14:55.518Z,3.58
2023-03-07T10:15:55.513Z,3.58
2023-03-07T10:16:55.547Z,3.62
2023-03-07T10:17:55.454Z,3.77
2023-03-07T10:18:55.454Z,3.81
2023-03-07T10:19:55.448Z,3.81
2023-03-07T10:20:55.424Z,3.86
2023-03-07T10:21:55.412Z,3.96
2023-03-07T10:22:55.408Z,4.04
2023-03-07T10:23:55.397Z,3.91
2023-03-07T10:24:55.384Z,3.81
2023-03-07T10:25:55.377Z,3.77
2023-03-07T10:26:55.358Z,3.78
2023-03-07T10:27:55.437Z,3.84
2023-03-07T10:28:55.339Z,3.87
2023-03-07T10:29:55.327Z,4.01
2023-03-07T10:30:55.321Z,3.99
2023-03-07T10:31:55.380Z,4.05
2023-03-07T10:32:55.310Z,3.99
2023-03-07T10:33:55.298Z,3.99
2023-03-07T10:34:55.266Z,4.01
2023-03-07T10:35:55.320Z,3.95
2023-03-07T10:37:08.077Z,3.84
2023-03-07T10:37:56.242Z,3.83
2023-03-07T10:38:55.224Z,3.77
2023-03-07T10:39:55.221Z,3.87
2023-03-07T10:40:55.204Z,3.86
2023-03-07T10:41:55.249Z,3.94
2023-03-07T10:42:55.207Z,4.02
2023-03-07T10:43:55.206Z,4.01
2023-03-07T10:44:55.181Z,4.06
2023-03-07T10:45:55.204Z,3.94
2023-03-07T10:46:56.550Z,3.88
2023-03-07T10:47:55.218Z,3.92
2023-03-07T10:48:55.131Z,3.96
2023-03-07T10:49:55.100Z,3.98
2023-03-07T10:50:55.092Z,4.08
2023-03-07T10:51:55.106Z,4.10
2023-03-07T10:52:55.079Z,4.14
2023-03-07T10:53:55.064Z,4.17
2023-03-07T10:54:55.066Z,4.14
2023-03-07T10:55:55.042Z,4.13
2023-03-07T10:56:55.029Z,4.17
2023-03-07T10:57:55.838Z,4.23
2023-03-07T10:58:55.004Z,4.30
2023-03-07T10:59:55.029Z,4.31
2023-03-07T11:00:54.990Z,4.26
2023-03-07T11:01:54.988Z,4.22
2023-03-07T11:02:54.969Z,4.28
2023-03-07T11:03:57.632Z,4.31
2023-03-07T11:04:55.015Z,4.24
2023-03-07T11:05:54.950Z,4.35
2023-03-07T11:06:54.919Z,4.19
2023-03-07T11:07:54.922Z,4.28
2023-03-07T11:08:54.893Z,4.31
2023-03-07T11:09:54.881Z,4.04
2023-03-07T11:10:54.873Z,3.87
2023-03-07T11:11:54.868Z,3.96
2023-03-07T11:12:54.856Z,3.86
2023-03-07T11:13:54.856Z,3.84
2023-03-07T11:14:54.831Z,3.95
2023-03-07T11:16:10.565Z,3.95
2023-03-07T11:16:55.819Z,3.95
2023-03-07T11:17:54.791Z,3.94
2023-03-07T11:18:54.788Z,3.98
2023-03-07T11:19:54.786Z,3.96
2023-03-07T11:20:54.767Z,3.99
2023-03-07T11:21:54.759Z,3.98
2023-03-07T11:22:54.740Z,3.99
2023-03-07T11:23:54.814Z,4.02
2023-03-07T11:24:54.718Z,4.10
2023-03-07T11:25:54.733Z,4.02
2023-03-07T11:26:54.696Z,4.04
2023-03-07T11:27:54.696Z,4.02
2023-03-07T11:28:54.674Z,4.13
2023-03-07T11:29:54.664Z,4.23
2023-03-07T11:30:54.686Z,4.30
2023-03-07T11:31:54.695Z,4.31
2023-03-07T11:32:54.636Z,4.26
2023-03-07T11:33:59.503Z,4.37
2023-03-07T11:34:55.626Z,4.30
2023-03-07T11:36:03.996Z,4.30
2023-03-07T11:36:54.587Z,4.41
2023-03-07T11:37:54.584Z,4.31
2023-03-07T11:38:54.567Z,4.32
2023-03-07T11:39:54.549Z,4.31
2023-03-07T11:40:54.554Z,4.31
2023-03-07T11:41:54.539Z,4.20
2023-03-07T11:42:54.541Z,4.20
2023-03-07T11:43:54.511Z,4.28
2023-03-07T11:44:54.533Z,4.26
2023-03-07T11:45:54.509Z,4.32
2023-03-07T11:46:54.481Z,4.34
2023-03-07T11:47:54.492Z,4.44
2023-03-07T11:48:54.462Z,4.34
2023-03-07T11:50:03.474Z,4.24
2023-03-07T11:50:54.438Z,4.31
2023-03-07T11:51:54.449Z,4.24
2023-03-07T11:52:54.426Z,4.30
2023-03-07T11:53:54.415Z,4.30
2023-03-07T11:54:54.401Z,4.32
2023-03-07T11:55:54.392Z,4.50
2023-03-07T11:56:54.406Z,4.42
2023-03-07T11:57:54.381Z,4.53
2023-03-07T11:58:54.361Z,4.56
2023-03-07T11:59:54.356Z,4.60
2023-03-07T12:00:54.337Z,4.62
2023-03-07T12:01:54.360Z,4.48
2023-03-07T12:02:54.362Z,4.42
2023-03-07T12:03:54.343Z,4.35
2023-03-07T12:04:54.299Z,4.40
2023-03-07T12:05:54.313Z,4.38
2023-03-07T12:06:54.273Z,4.34
2023-03-07T12:07:54.304Z,4.32
2023-03-07T12:08:54.263Z,4.44
2023-03-07T12:09:54.248Z,4.40
2023-03-07T12:10:54.231Z,4.24
2023-03-07T12:11:54.260Z,4.24
2023-03-07T12:12:54.237Z,4.26
2023-03-07T12:13:54.211Z,4.28
2023-03-07T12:14:54.200Z,4.34
2023-03-07T12:15:54.264Z,4.31
2023-03-07T12:16:54.163Z,4.34
2023-03-07T12:17:54.147Z,4.41
2023-03-07T12:18:54.146Z,4.45
2023-03-07T12:19:54.152Z,4.62
2023-03-07T12:20:54.165Z,4.71
2023-03-07T12:21:54.130Z,4.55
2023-03-07T12:22:54.100Z,4.70
2023-03-07T12:23:54.084Z,4.70
2023-03-07T12:24:54.077Z,4.71
2023-03-07T12:25:54.090Z,4.73
2023-03-07T12:26:54.060Z,4.63
2023-03-07T12:27:54.040Z,4.74
2023-03-07T12:28:54.060Z,4.73
2023-03-07T12:29:54.038Z,4.70
2023-03-07T12:30:54.042Z,4.86
2023-03-07T12:31:54.120Z,4.96
2023-03-07T12:32:54.235Z,4.92
2023-03-07T12:33:53.998Z,4.96
2023-03-07T12:34:53.979Z,4.92
2023-03-07T12:35:54.164Z,4.96
2023-03-07T12:36:53.974Z,5.02
2023-03-07T12:37:53.941Z,5.02
2023-03-07T12:38:53.950Z,4.89
2023-03-07T12:39:53.921Z,4.90
2023-03-07T12:40:53.952Z,4.77
2023-03-07T12:41:53.895Z,4.66
2023-03-07T12:42:53.914Z,4.63
2023-03-07T12:43:53.880Z,4.62
2023-03-07T12:44:53.869Z,4.59
2023-03-07T12:45:54.068Z,4.56
2023-03-07T12:46:53.864Z,4.58
2023-03-07T12:47:53.834Z,4.56
2023-03-07T12:48:53.814Z,4.42
2023-03-07T12:49:53.828Z,4.41
2023-03-07T12:50:53.816Z,4.42
2023-03-07T12:51:53.832Z,4.38
2023-03-07T12:52:53.785Z,4.52
2023-03-07T12:53:53.792Z,4.37
2023-03-07T12:54:53.755Z,4.48
2023-03-07T12:55:53.745Z,4.56
2023-03-07T12:56:53.743Z,4.62
2023-03-07T12:57:53.755Z,4.70
2023-03-07T12:58:53.707Z,4.75
2023-03-07T12:59:53.702Z,4.89
2023-03-07T13:00:53.743Z,4.92
2023-03-07T13:01:53.697Z,5.07
2023-03-07T13:02:53.664Z,4.90
2023-03-07T13:03:53.831Z,4.71
2023-03-07T13:04:53.647Z,4.84
2023-03-07T13:05:53.640Z,4.82
2023-03-07T13:06:53.624Z,4.73
2023-03-07T13:07:53.640Z,4.71
2023-03-07T13:08:53.600Z,4.68
2023-03-07T13:09:53.596Z,4.86
2023-03-07T13:10:53.573Z,4.77
2023-03-07T13:11:53.570Z,4.90
2023-03-07T13:12:53.560Z,4.82
2023-03-07T13:13:53.558Z,4.84
2023-03-07T13:14:53.533Z,4.92
2023-03-07T13:15:53.518Z,4.86
2023-03-07T13:16:53.525Z,4.78
2023-03-07T13:17:53.511Z,4.89
2023-03-07T13:18:53.533Z,4.87
2023-03-07T13:19:53.496Z,4.90